Time;durP1;ratioP1;P1;durP2;ratioP2;P2;SDS_P1;SDS_P2;PMS_P1;PMS_P2;Temp;Humidity;BMP_temperature;BMP_pressure;BME280_temperature;BME280_humidity;BME280_pressure;Samples;Min_cycle;Max_cycle;Signal;HPM_P1;HPM_P2
2022/10/28 00:01:39;;;;;;;;;;;;;;;;;;7371826;19;805;-61
2022/10/28 00:04:07;;;;;;;;;;;;;;;;;;7372370;19;822;-64
2022/10/28 00:06:35;;;;;;;;;;;;;;;;;;7370825;19;863;-62
2022/10/28 00:09:03;;;;;;;;;;;;;;;;;;7370209;19;1278;-63
2022/10/28 00:11:31;;;;;;;;;;;;;;;;;;7372376;19;720;-60
2022/10/28 00:13:59;;;;;;;;;;;;;;;;;;7373810;19;1786;-58
2022/10/28 00:16:28;;;;;;;;;;;;;;;;;;7372777;19;1865;-57
2022/10/28 00:18:56;;;;;;;;;;;;;;;;;;7371314;19;1322;-56
2022/10/28 00:21:24;;;;;;;;;;;;;;;;;;7378082;19;879;-57
2022/10/28 00:23:52;;;;;;;;;;;;;;;;;;7373809;19;812;-54
2022/10/28 00:26:20;;;;;;;;;;;;;;;;;;7375511;19;1774;-61
2022/10/28 00:28:48;;;;;;;;;;;;;;;;;;7366895;19;1300;-58
2022/10/28 00:31:16;;;;;;;;;;;;;;;;;;7372721;19;1792;-58
2022/10/28 00:33:44;;;;;;;;;;;;;;;;;;7370701;19;1262;-57
2022/10/28 00:36:13;;;;;;;;;;;;;;;;;;7372492;19;1658;-58
2022/10/28 00:38:41;;;;;;;;;;;;;;;;;;7370966;19;1837;-62
2022/10/28 00:41:09;;;;;;;;;;;;;;;;;;7366909;19;830;-61
2022/10/28 00:43:37;;;;;;;;;;;;;;;;;;7370247;19;866;-59
2022/10/28 00:46:05;;;;;;;;;;;;;;;;;;7370137;19;851;-61
2022/10/28 00:48:33;;;;;;;;;;;;;;;;;;7372195;19;2108;-61
2022/10/28 00:51:02;;;;;;;;;;;;;;;;;;7371500;19;1771;-61
2022/10/28 00:53:30;;;;;;;;;;;;;;;;;;7369157;19;862;-59
2022/10/28 00:55:58;;;;;;;;;;;;;;;;;;7368868;19;815;-59
2022/10/28 00:58:26;;;;;;;;;;;;;;;;;;7366163;19;1841;-60
2022/10/28 01:00:54;;;;;;;;;;;;;;;;;;7369080;19;788;-59
2022/10/28 01:03:22;;;;;;;;;;;;;;;;;;7369614;19;1844;-58
2022/10/28 01:05:51;;;;;;;;;;;;;;;;;;7368118;19;823;-59
2022/10/28 01:08:19;;;;;;;;;;;;;;;;;;7366065;19;1334;-56
2022/10/28 01:10:47;;;;;;;;;;;;;;;;;;7368002;19;795;-60
2022/10/28 01:13:15;;;;;;;;;;;;;;;;;;7368364;19;788;-61
2022/10/28 01:15:43;;;;;;;;;;;;;;;;;;7367723;19;815;-56
2022/10/28 01:18:11;;;;;;;;;;;;;;;;;;7364929;19;1852;-63
2022/10/28 01:20:39;;;;;;;;;;;;;;;;;;7372776;19;874;-59
2022/10/28 01:23:07;;;;;;;;;;;;;;;;;;7367998;19;875;-62
2022/10/28 01:25:35;;;;;;;;;;;;;;;;;;7367289;19;819;-61
2022/10/28 01:28:04;;;;;;;;;;;;;;;;;;7366951;19;1259;-61
2022/10/28 01:30:32;;;;;;;;;;;;;;;;;;7370586;19;1628;-58
2022/10/28 01:33:00;;;;;;;;;;;;;;;;;;7369278;19;1824;-56
2022/10/28 01:35:28;;;;;;;;;;;;;;;;;;7367171;19;858;-56
2022/10/28 01:37:56;;;;;;;;;;;;;;;;;;7365568;19;1842;-56
2022/10/28 01:40:24;;;;;;;;;;;;;;;;;;7367614;19;799;-60
2022/10/28 01:42:52;;;;;;;;;;;;;;;;;;7366929;19;814;-61
2022/10/28 01:45:20;;;;;;;;;;;;;;;;;;7367058;19;848;-60
2022/10/28 01:47:48;;;;;;;;;;;;;;;;;;7365681;19;1353;-60
2022/10/28 01:50:17;;;;;;;;;;;;;;;;;;7369259;19;1784;-60
2022/10/28 01:52:45;;;;;;;;;;;;;;;;;;7365738;19;858;-61
2022/10/28 01:55:13;;;;;;;;;;;;;;;;;;7366838;19;804;-61
2022/10/28 01:57:41;;;;;;;;;;;;;;;;;;7365412;19;1839;-59
2022/10/28 02:00:09;;;;;;;;;;;;;;;;;;7366371;19;831;-58
2022/10/28 02:02:40;;;;;;;;;;;;;;;;;;7368736;19;1772;-57
2022/10/28 02:05:08;;;;;;;;;;;;;;;;;;7369191;19;1802;-58
2022/10/28 02:07:36;;;;;;;;;;;;;;;;;;7365956;19;1290;-64
2022/10/28 02:10:07;;;;;;;;;;;;;;;;;;7366228;19;842;-59
2022/10/28 02:12:36;;;;;;;;;;;;;;;;;;7365382;19;745;-61
2022/10/28 02:15:04;;;;;;;;;;;;;;;;;;7366038;19;870;-59
2022/10/28 02:17:32;;;;;;;;;;;;;;;;;;7365903;19;1853;-59
2022/10/28 02:20:00;;;;;;;;;;;;;;;;;;7370376;19;1814;-60
2022/10/28 02:22:28;;;;;;;;;;;;;;;;;;7365802;19;824;-61
2022/10/28 02:24:56;;;;;;;;;;;;;;;;;;7365690;19;815;-56
2022/10/28 02:27:25;;;;;;;;;;;;;;;;;;7366293;19;1294;-59
2022/10/28 02:29:53;;;;;;;;;;;;;;;;;;7365355;19;793;-62
2022/10/28 02:32:21;;;;;;;;;;;;;;;;;;7366956;19;811;-54
2022/10/28 02:34:49;;;;;;;;;;;;;;;;;;7368548;19;1785;-58
2022/10/28 02:37:17;;;;;;;;;;;;;;;;;;7368669;19;1850;-54
2022/10/28 02:39:45;;;;;;;;;;;;;;;;;;7361851;19;1358;-57
2022/10/28 02:42:13;;;;;;;;;;;;;;;;;;7366335;19;791;-62
2022/10/28 02:44:41;;;;;;;;;;;;;;;;;;7366159;19;872;-57
2022/10/28 02:47:10;;;;;;;;;;;;;;;;;;7366333;19;830;-60
2022/10/28 02:49:38;;;;;;;;;;;;;;;;;;7362133;19;1267;-61
2022/10/28 02:52:06;;;;;;;;;;;;;;;;;;7368932;19;1826;-61
2022/10/28 02:54:34;;;;;;;;;;;;;;;;;;7364726;19;859;-61
2022/10/28 02:57:02;;;;;;;;;;;;;;;;;;7367152;19;1798;-60
2022/10/28 02:59:30;;;;;;;;;;;;;;;;;;7360456;19;1846;-58
2022/10/28 03:01:58;;;;;;;;;;;;;;;;;;7364926;19;719;-57
2022/10/28 03:04:26;;;;;;;;;;;;;;;;;;7362373;19;875;-58
2022/10/28 03:06:55;;;;;;;;;;;;;;;;;;7365364;19;1829;-61
2022/10/28 03:09:23;;;;;;;;;;;;;;;;;;7360933;19;1318;-60
2022/10/28 03:11:51;;;;;;;;;;;;;;;;;;7364985;19;850;-58
2022/10/28 03:14:19;;;;;;;;;;;;;;;;;;7364608;19;858;-54
2022/10/28 03:16:47;;;;;;;;;;;;;;;;;;7364358;19;862;-61
2022/10/28 03:19:15;;;;;;;;;;;;;;;;;;7361003;19;1880;-58
2022/10/28 03:21:43;;;;;;;;;;;;;;;;;;7365773;19;2140;-61
2022/10/28 03:24:11;;;;;;;;;;;;;;;;;;7363976;19;789;-60
2022/10/28 03:26:40;;;;;;;;;;;;;;;;;;7363761;19;849;-53
2022/10/28 03:29:08;;;;;;;;;;;;;;;;;;7361700;19;1287;-59
2022/10/28 03:31:36;;;;;;;;;;;;;;;;;;7363290;19;809;-58
2022/10/28 03:34:06;;;;;;;;;;;;;;;;;;7363636;19;1005;-58
2022/10/28 03:36:35;;;;;;;;;;;;;;;;;;7366496;19;1790;-59
2022/10/28 03:39:03;;;;;;;;;;;;;;;;;;7361040;19;1845;-59
2022/10/28 03:41:31;;;;;;;;;;;;;;;;;;7364137;19;866;-59
2022/10/28 03:43:59;;;;;;;;;;;;;;;;;;7363776;19;856;-59
2022/10/28 03:46:27;;;;;;;;;;;;;;;;;;7362946;19;843;-61
2022/10/28 03:48:55;;;;;;;;;;;;;;;;;;7361142;19;1311;-61
2022/10/28 03:51:23;;;;;;;;;;;;;;;;;;7363760;19;1821;-59
2022/10/28 03:53:51;;;;;;;;;;;;;;;;;;7364845;19;1578;-63
2022/10/28 03:56:19;;;;;;;;;;;;;;;;;;7363139;19;818;-61
2022/10/28 03:58:48;;;;;;;;;;;;;;;;;;7360293;19;1853;-61
2022/10/28 04:01:16;;;;;;;;;;;;;;;;;;7363223;19;812;-61
2022/10/28 04:03:44;;;;;;;;;;;;;;;;;;7363173;19;827;-61
2022/10/28 04:06:13;;;;;;;;;;;;;;;;;;7362836;19;912;-59
2022/10/28 04:08:41;;;;;;;;;;;;;;;;;;7363800;19;1796;-60
2022/10/28 04:11:09;;;;;;;;;;;;;;;;;;7363219;19;863;-52
2022/10/28 04:13:37;;;;;;;;;;;;;;;;;;7362258;19;808;-58
2022/10/28 04:16:05;;;;;;;;;;;;;;;;;;7367917;19;882;-59
2022/10/28 04:18:34;;;;;;;;;;;;;;;;;;7367124;19;1839;-60
2022/10/28 04:21:02;;;;;;;;;;;;;;;;;;7369847;19;799;-58
2022/10/28 04:23:30;;;;;;;;;;;;;;;;;;7369454;19;861;-58
2022/10/28 04:25:58;;;;;;;;;;;;;;;;;;7370875;19;1863;-62
2022/10/28 04:28:26;;;;;;;;;;;;;;;;;;7367314;19;1318;-60
2022/10/28 04:30:54;;;;;;;;;;;;;;;;;;7372671;19;1799;-61
2022/10/28 04:33:23;;;;;;;;;;;;;;;;;;7369815;19;845;-61
2022/10/28 04:35:51;;;;;;;;;;;;;;;;;;7369670;19;850;-61
2022/10/28 04:38:19;;;;;;;;;;;;;;;;;;7366967;19;1869;-61
2022/10/28 04:40:47;;;;;;;;;;;;;;;;;;7368708;19;1790;-59
2022/10/28 04:43:15;;;;;;;;;;;;;;;;;;7373236;19;2215;-60
2022/10/28 04:45:43;;;;;;;;;;;;;;;;;;7372373;19;1791;-57
2022/10/28 04:48:11;;;;;;;;;;;;;;;;;;7367091;19;1299;-61
2022/10/28 04:50:39;;;;;;;;;;;;;;;;;;7368399;19;812;-61
2022/10/28 04:53:11;;;;;;;;;;;;;;;;;;7368396;19;779;-60
2022/10/28 04:55:40;;;;;;;;;;;;;;;;;;7368576;19;854;-59
2022/10/28 04:58:08;;;;;;;;;;;;;;;;;;7367840;19;2066;-61
2022/10/28 05:00:36;;;;;;;;;;;;;;;;;;7370773;19;1767;-58
2022/10/28 05:03:04;;;;;;;;;;;;;;;;;;7368871;19;785;-60
2022/10/28 05:05:32;;;;;;;;;;;;;;;;;;7368895;19;818;-56
2022/10/28 05:08:00;;;;;;;;;;;;;;;;;;7367004;19;1269;-57
2022/10/28 05:10:29;;;;;;;;;;;;;;;;;;7368227;19;877;-60
2022/10/28 05:12:57;;;;;;;;;;;;;;;;;;7368030;19;816;-58
2022/10/28 05:15:25;;;;;;;;;;;;;;;;;;7372088;19;1768;-61
2022/10/28 05:17:53;;;;;;;;;;;;;;;;;;7366655;19;1291;-57
2022/10/28 05:20:21;;;;;;;;;;;;;;;;;;7369234;19;1825;-59
2022/10/28 05:22:49;;;;;;;;;;;;;;;;;;7367252;19;785;-60
2022/10/28 05:25:18;;;;;;;;;;;;;;;;;;7367983;19;882;-57
2022/10/28 05:27:46;;;;;;;;;;;;;;;;;;7364160;19;1349;-57
2022/10/28 05:30:14;;;;;;;;;;;;;;;;;;7367894;19;799;-57
2022/10/28 05:32:42;;;;;;;;;;;;;;;;;;7368815;19;1618;-60
2022/10/28 05:35:10;;;;;;;;;;;;;;;;;;7367305;19;818;-60
2022/10/28 05:37:38;;;;;;;;;;;;;;;;;;7366436;19;1321;-64
2022/10/28 05:40:06;;;;;;;;;;;;;;;;;;7364743;19;1842;-59
2022/10/28 05:42:34;;;;;;;;;;;;;;;;;;7367266;19;804;-62
2022/10/28 05:45:02;;;;;;;;;;;;;;;;;;7367698;19;939;-61
2022/10/28 05:47:31;;;;;;;;;;;;;;;;;;7366289;19;1282;-61
2022/10/28 05:49:59;;;;;;;;;;;;;;;;;;7365239;19;768;-59
2022/10/28 05:52:27;;;;;;;;;;;;;;;;;;7367231;19;891;-58
2022/10/28 05:54:55;;;;;;;;;;;;;;;;;;7366973;19;888;-62
2022/10/28 05:57:23;;;;;;;;;;;;;;;;;;7366166;19;1275;-58
2022/10/28 05:59:51;;;;;;;;;;;;;;;;;;7363182;19;1841;-57
2022/10/28 06:02:19;;;;;;;;;;;;;;;;;;7370635;19;1952;-60
2022/10/28 06:04:47;;;;;;;;;;;;;;;;;;7366817;19;874;-59
2022/10/28 06:07:16;;;;;;;;;;;;;;;;;;7366390;19;819;-59
2022/10/28 06:09:44;;;;;;;;;;;;;;;;;;7366401;19;1857;-60
2022/10/28 06:12:12;;;;;;;;;;;;;;;;;;7366384;19;848;-58
2022/10/28 06:14:40;;;;;;;;;;;;;;;;;;7366628;19;818;-58
2022/10/28 06:17:08;;;;;;;;;;;;;;;;;;7365379;19;812;-60
2022/10/28 06:19:36;;;;;;;;;;;;;;;;;;7363223;19;1861;-61
2022/10/28 06:22:04;;;;;;;;;;;;;;;;;;7366270;19;800;-55
2022/10/28 06:24:32;;;;;;;;;;;;;;;;;;7366704;19;768;-62
2022/10/28 06:27:00;;;;;;;;;;;;;;;;;;7365857;19;765;-56
2022/10/28 06:29:30;;;;;;;;;;;;;;;;;;7362543;19;1287;-58
2022/10/28 06:31:59;;;;;;;;;;;;;;;;;;7366658;19;831;-55
2022/10/28 06:34:27;;;;;;;;;;;;;;;;;;7366902;19;780;-54
2022/10/28 06:36:55;;;;;;;;;;;;;;;;;;7364865;19;812;-61
2022/10/28 06:39:23;;;;;;;;;;;;;;;;;;7362286;19;1865;-57
2022/10/28 06:41:51;;;;;;;;;;;;;;;;;;7366072;19;870;-59
2022/10/28 06:44:19;;;;;;;;;;;;;;;;;;7365917;19;871;-58
2022/10/28 06:46:47;;;;;;;;;;;;;;;;;;7365733;19;840;-61
2022/10/28 06:49:15;;;;;;;;;;;;;;;;;;7362792;19;1284;-57
2022/10/28 06:51:44;;;;;;;;;;;;;;;;;;7365681;19;811;-57
2022/10/28 06:54:12;;;;;;;;;;;;;;;;;;7366155;19;860;-59
2022/10/28 06:56:40;;;;;;;;;;;;;;;;;;7367547;19;815;-55
2022/10/28 06:59:08;;;;;;;;;;;;;;;;;;7365508;19;1854;-57
2022/10/28 07:01:37;;;;;;;;;;;;;;;;;;7368430;19;870;-61
2022/10/28 07:04:05;;;;;;;;;;;;;;;;;;7371410;19;1713;-59
2022/10/28 07:06:33;;;;;;;;;;;;;;;;;;7368450;19;780;-58
2022/10/28 07:09:01;;;;;;;;;;;;;;;;;;7366628;19;1659;-59
2022/10/28 07:11:29;;;;;;;;;;;;;;;;;;7365588;19;816;-58
2022/10/28 07:13:57;;;;;;;;;;;;;;;;;;7365526;19;857;-59
2022/10/28 07:16:25;;;;;;;;;;;;;;;;;;7364912;19;906;-60
2022/10/28 07:18:53;;;;;;;;;;;;;;;;;;7362553;19;1859;-61
2022/10/28 07:21:27;;;;;;;;;;;;;;;;;;7364975;19;1917;-59
2022/10/28 07:23:55;;;;;;;;;;;;;;;;;;7365435;19;818;-60
2022/10/28 07:26:23;;;;;;;;;;;;;;;;;;7364849;19;803;-61
2022/10/28 07:28:51;;;;;;;;;;;;;;;;;;7362356;19;1263;-53
2022/10/28 07:31:19;;;;;;;;;;;;;;;;;;7365013;19;810;-59
2022/10/28 07:33:47;;;;;;;;;;;;;;;;;;7364403;19;830;-54
2022/10/28 07:36:15;;;;;;;;;;;;;;;;;;7364933;19;808;-59
2022/10/28 07:38:43;;;;;;;;;;;;;;;;;;7361891;19;1877;-62
2022/10/28 07:41:12;;;;;;;;;;;;;;;;;;7363677;19;866;-59
2022/10/28 07:43:40;;;;;;;;;;;;;;;;;;7363794;19;882;-61
2022/10/28 07:46:08;;;;;;;;;;;;;;;;;;7363759;19;835;-61
2022/10/28 07:48:36;;;;;;;;;;;;;;;;;;7361771;19;1326;-59
2022/10/28 07:51:04;;;;;;;;;;;;;;;;;;7369054;19;791;-60
2022/10/28 07:53:32;;;;;;;;;;;;;;;;;;7371050;19;759;-60
2022/10/28 07:56:00;;;;;;;;;;;;;;;;;;7371107;19;808;-59
2022/10/28 07:58:29;;;;;;;;;;;;;;;;;;7368754;19;1253;-59
2022/10/28 08:00:57;;;;;;;;;;;;;;;;;;7368505;19;1837;-59
2022/10/28 08:03:25;;;;;;;;;;;;;;;;;;7371342;19;863;-60
2022/10/28 08:05:54;;;;;;;;;;;;;;;;;;7370925;19;823;-60
2022/10/28 08:08:22;;;;;;;;;;;;;;;;;;7369635;19;1505;-61
2022/10/28 08:10:50;;;;;;;;;;;;;;;;;;7371122;19;858;-61
2022/10/28 08:13:18;;;;;;;;;;;;;;;;;;7370482;19;975;-57
2022/10/28 08:15:46;;;;;;;;;;;;;;;;;;7373427;19;1019;-60
2022/10/28 08:18:14;;;;;;;;;;;;;;;;;;7373123;19;1772;-58
2022/10/28 08:20:42;;;;;;;;;;;;;;;;;;7368989;19;1857;-56
2022/10/28 08:23:10;;;;;;;;;;;;;;;;;;7370490;19;811;-54
2022/10/28 08:25:38;;;;;;;;;;;;;;;;;;7369623;19;1818;-60
2022/10/28 08:28:07;;;;;;;;;;;;;;;;;;7368399;19;1325;-58
2022/10/28 08:30:35;;;;;;;;;;;;;;;;;;7373310;19;934;-62
2022/10/28 08:33:03;;;;;;;;;;;;;;;;;;7374158;19;808;-59
2022/10/28 08:35:31;;;;;;;;;;;;;;;;;;7369862;19;857;-61
2022/10/28 08:37:59;;;;;;;;;;;;;;;;;;7368554;19;1342;-62
2022/10/28 08:40:27;;;;;;;;;;;;;;;;;;7368492;19;1842;-61
2022/10/28 08:42:56;;;;;;;;;;;;;;;;;;7373281;19;1011;-61
2022/10/28 08:45:24;;;;;;;;;;;;;;;;;;7372528;19;1641;-61
2022/10/28 08:47:52;;;;;;;;;;;;;;;;;;7372162;19;1302;-61
2022/10/28 08:50:20;;;;;;;;;;;;;;;;;;7371306;19;1804;-60
2022/10/28 08:52:48;;;;;;;;;;;;;;;;;;7368554;19;863;-59
2022/10/28 08:55:16;;;;;;;;;;;;;;;;;;7368588;19;846;-61
2022/10/28 08:57:44;;;;;;;;;;;;;;;;;;7368101;19;1291;-60
2022/10/28 09:00:12;;;;;;;;;;;;;;;;;;7367686;19;1852;-60
2022/10/28 09:02:41;;;;;;;;;;;;;;;;;;7366101;19;813;-60
2022/10/28 09:05:09;;;;;;;;;;;;;;;;;;7367987;19;859;-56
2022/10/28 09:07:37;;;;;;;;;;;;;;;;;;7367559;19;1340;-57
2022/10/28 09:10:05;;;;;;;;;;;;;;;;;;7368034;19;832;-58
2022/10/28 09:12:33;;;;;;;;;;;;;;;;;;7366383;19;841;-59
2022/10/28 09:15:01;;;;;;;;;;;;;;;;;;7368029;19;738;-58
2022/10/28 09:17:29;;;;;;;;;;;;;;;;;;7369045;19;1768;-60
2022/10/28 09:19:57;;;;;;;;;;;;;;;;;;7371364;19;1841;-59
2022/10/28 09:22:26;;;;;;;;;;;;;;;;;;7368666;19;960;-59
2022/10/28 09:24:54;;;;;;;;;;;;;;;;;;7367927;19;851;-58
2022/10/28 09:27:22;;;;;;;;;;;;;;;;;;7368255;19;808;-57
2022/10/28 09:29:50;;;;;;;;;;;;;;;;;;7367034;19;838;-62
2022/10/28 09:32:18;;;;;;;;;;;;;;;;;;7368389;19;785;-60
2022/10/28 09:34:46;;;;;;;;;;;;;;;;;;7368023;19;824;-59
2022/10/28 09:37:14;;;;;;;;;;;;;;;;;;7367501;19;1835;-58
2022/10/28 09:39:42;;;;;;;;;;;;;;;;;;7364212;19;1858;-60
2022/10/28 09:42:11;;;;;;;;;;;;;;;;;;7367013;19;1829;-57
2022/10/28 09:44:39;;;;;;;;;;;;;;;;;;7371151;19;1551;-56
2022/10/28 09:47:07;;;;;;;;;;;;;;;;;;7370220;19;1748;-57
2022/10/28 09:49:35;;;;;;;;;;;;;;;;;;7366650;19;1336;-61
2022/10/28 09:52:03;;;;;;;;;;;;;;;;;;7369643;19;1505;-61
2022/10/28 09:54:31;;;;;;;;;;;;;;;;;;7365326;19;877;-61
2022/10/28 09:56:59;;;;;;;;;;;;;;;;;;7366633;19;839;-62
2022/10/28 09:59:27;;;;;;;;;;;;;;;;;;7363456;19;1841;-60
2022/10/28 10:01:55;;;;;;;;;;;;;;;;;;7370185;19;1728;-61
2022/10/28 10:04:24;;;;;;;;;;;;;;;;;;7366937;19;1844;-62
2022/10/28 10:06:52;;;;;;;;;;;;;;;;;;7371240;19;1849;-62
2022/10/28 10:09:20;;;;;;;;;;;;;;;;;;7365892;19;2066;-62
2022/10/28 10:11:49;;;;;;;;;;;;;;;;;;7366857;19;886;-62
2022/10/28 10:14:17;;;;;;;;;;;;;;;;;;7366784;19;1811;-61
2022/10/28 10:16:45;;;;;;;;;;;;;;;;;;7366627;19;791;-60
2022/10/28 10:19:13;;;;;;;;;;;;;;;;;;7362078;19;1336;-60
2022/10/28 10:21:42;;;;;;;;;;;;;;;;;;7364118;19;1841;-59
2022/10/28 10:24:10;;;;;;;;;;;;;;;;;;7365908;19;809;-57
2022/10/28 10:26:38;;;;;;;;;;;;;;;;;;7365671;19;770;-59
2022/10/28 10:29:06;;;;;;;;;;;;;;;;;;7363341;19;1385;-59
2022/10/28 10:31:34;;;;;;;;;;;;;;;;;;7365848;19;933;-58
2022/10/28 10:34:02;;;;;;;;;;;;;;;;;;7366406;19;855;-57
2022/10/28 10:36:30;;;;;;;;;;;;;;;;;;7366526;19;1772;-57
2022/10/28 10:38:58;;;;;;;;;;;;;;;;;;7362205;19;1279;-56
2022/10/28 10:41:26;;;;;;;;;;;;;;;;;;7362680;19;1850;-59
2022/10/28 10:43:55;;;;;;;;;;;;;;;;;;7365452;19;866;-61
2022/10/28 10:46:23;;;;;;;;;;;;;;;;;;7365839;19;878;-60
2022/10/28 10:48:51;;;;;;;;;;;;;;;;;;7363419;19;1279;-60
2022/10/28 10:51:19;;;;;;;;;;;;;;;;;;7365238;19;815;-58
2022/10/28 10:53:47;;;;;;;;;;;;;;;;;;7365075;19;828;-60
2022/10/28 10:56:15;;;;;;;;;;;;;;;;;;7365247;19;869;-60
2022/10/28 10:58:43;;;;;;;;;;;;;;;;;;7362510;19;1263;-62
2022/10/28 11:01:11;;;;;;;;;;;;;;;;;;7365204;19;1860;-61
2022/10/28 11:03:40;;;;;;;;;;;;;;;;;;7365570;19;1870;-59
2022/10/28 11:06:08;;;;;;;;;;;;;;;;;;7366097;19;826;-60
2022/10/28 11:08:36;;;;;;;;;;;;;;;;;;7362658;19;1329;-62
2022/10/28 11:11:04;;;;;;;;;;;;;;;;;;7365804;19;803;-58
2022/10/28 11:13:32;;;;;;;;;;;;;;;;;;7365350;19;806;-59
2022/10/28 11:16:00;;;;;;;;;;;;;;;;;;7365257;19;820;-61
2022/10/28 11:18:30;;;;;;;;;;;;;;;;;;7363060;19;1336;-60
2022/10/28 11:20:58;;;;;;;;;;;;;;;;;;7363003;19;1861;-60
2022/10/28 11:23:26;;;;;;;;;;;;;;;;;;7364699;19;804;-62
2022/10/28 11:25:54;;;;;;;;;;;;;;;;;;7366132;19;1743;-61
2022/10/28 11:28:23;;;;;;;;;;;;;;;;;;7362245;19;1296;-58
2022/10/28 11:30:52;;;;;;;;;;;;;;;;;;7364522;19;815;-60
2022/10/28 11:33:20;;;;;;;;;;;;;;;;;;7363226;19;2078;-58
2022/10/28 11:35:48;;;;;;;;;;;;;;;;;;7364487;19;822;-56
2022/10/28 11:38:17;;;;;;;;;;;;;;;;;;7362374;19;1302;-61
2022/10/28 11:40:45;;;;;;;;;;;;;;;;;;7362743;19;1845;-60
2022/10/28 11:43:13;;;;;;;;;;;;;;;;;;7363827;19;852;-59
2022/10/28 11:45:41;;;;;;;;;;;;;;;;;;7363428;19;803;-53
2022/10/28 11:48:09;;;;;;;;;;;;;;;;;;7363667;19;1816;-61
2022/10/28 11:50:37;;;;;;;;;;;;;;;;;;7364237;19;864;-58
2022/10/28 11:53:06;;;;;;;;;;;;;;;;;;7363725;19;863;-61
2022/10/28 11:55:34;;;;;;;;;;;;;;;;;;7364464;19;1755;-59
2022/10/28 11:58:02;;;;;;;;;;;;;;;;;;7361605;19;1307;-58
2022/10/28 12:00:30;;;;;;;;;;;;;;;;;;7362239;19;1849;-60
2022/10/28 12:02:58;;;;;;;;;;;;;;;;;;7363612;19;803;-52
2022/10/28 12:05:27;;;;;;;;;;;;;;;;;;7365657;19;1791;-58
2022/10/28 12:07:55;;;;;;;;;;;;;;;;;;7365786;19;1887;-58
2022/10/28 12:10:23;;;;;;;;;;;;;;;;;;7363394;19;1753;-60
2022/10/28 12:12:51;;;;;;;;;;;;;;;;;;7363316;19;948;-59
2022/10/28 12:15:19;;;;;;;;;;;;;;;;;;7363085;19;804;-62
2022/10/28 12:17:47;;;;;;;;;;;;;;;;;;7362186;19;1368;-62
2022/10/28 12:20:15;;;;;;;;;;;;;;;;;;7362623;19;1869;-62
2022/10/28 12:22:44;;;;;;;;;;;;;;;;;;7366543;19;1798;-60
2022/10/28 12:25:12;;;;;;;;;;;;;;;;;;7363154;19;873;-61
2022/10/28 12:27:40;;;;;;;;;;;;;;;;;;7361930;19;1295;-58
2022/10/28 12:30:08;;;;;;;;;;;;;;;;;;7365417;19;943;-58
2022/10/28 12:32:36;;;;;;;;;;;;;;;;;;7361354;19;815;-62
2022/10/28 12:35:04;;;;;;;;;;;;;;;;;;7361015;19;795;-59
2022/10/28 12:37:32;;;;;;;;;;;;;;;;;;7369299;19;1776;-62
2022/10/28 12:40:00;;;;;;;;;;;;;;;;;;7367687;19;826;-58
2022/10/28 12:42:29;;;;;;;;;;;;;;;;;;7369811;19;1838;-60
2022/10/28 12:44:57;;;;;;;;;;;;;;;;;;7368120;19;819;-58
2022/10/28 12:47:25;;;;;;;;;;;;;;;;;;7367991;19;811;-60
2022/10/28 12:49:53;;;;;;;;;;;;;;;;;;7371718;19;1748;-60
2022/10/28 12:52:21;;;;;;;;;;;;;;;;;;7368004;19;787;-57
2022/10/28 12:54:49;;;;;;;;;;;;;;;;;;7372501;19;1829;-62
2022/10/28 12:57:17;;;;;;;;;;;;;;;;;;7368853;19;795;-61
2022/10/28 12:59:46;;;;;;;;;;;;;;;;;;7365365;19;1262;-61
2022/10/28 13:02:14;;;;;;;;;;;;;;;;;;7366596;19;1834;-60
2022/10/28 13:04:42;;;;;;;;;;;;;;;;;;7367991;19;826;-60
2022/10/28 13:07:10;;;;;;;;;;;;;;;;;;7368009;19;892;-62
2022/10/28 13:09:38;;;;;;;;;;;;;;;;;;7365363;19;1701;-61
2022/10/28 13:12:06;;;;;;;;;;;;;;;;;;7372664;19;1796;-60
2022/10/28 13:14:34;;;;;;;;;;;;;;;;;;7371435;19;1774;-62
2022/10/28 13:17:02;;;;;;;;;;;;;;;;;;7372936;19;1673;-61
2022/10/28 13:19:31;;;;;;;;;;;;;;;;;;7364818;19;1275;-60
2022/10/28 13:21:59;;;;;;;;;;;;;;;;;;7367089;19;1967;-59
2022/10/28 13:24:27;;;;;;;;;;;;;;;;;;7368448;19;818;-59
2022/10/28 13:26:55;;;;;;;;;;;;;;;;;;7369987;19;1784;-59
2022/10/28 13:29:23;;;;;;;;;;;;;;;;;;7365198;19;1283;-61
2022/10/28 13:31:51;;;;;;;;;;;;;;;;;;7368793;19;845;-58
2022/10/28 13:34:19;;;;;;;;;;;;;;;;;;7369550;19;782;-63
2022/10/28 13:36:48;;;;;;;;;;;;;;;;;;7370874;19;1747;-59
2022/10/28 13:39:16;;;;;;;;;;;;;;;;;;7369431;19;1278;-62
2022/10/28 13:41:44;;;;;;;;;;;;;;;;;;7369483;19;2065;-62
2022/10/28 13:44:12;;;;;;;;;;;;;;;;;;7374664;19;1716;-57
2022/10/28 13:46:40;;;;;;;;;;;;;;;;;;7370148;19;912;-59
2022/10/28 13:49:08;;;;;;;;;;;;;;;;;;7365679;19;1278;-60
2022/10/28 13:51:36;;;;;;;;;;;;;;;;;;7368634;19;813;-62
2022/10/28 13:54:05;;;;;;;;;;;;;;;;;;7368362;19;816;-59
2022/10/28 13:56:33;;;;;;;;;;;;;;;;;;7368602;19;775;-58
2022/10/28 13:59:01;;;;;;;;;;;;;;;;;;7365453;19;1823;-59
2022/10/28 14:01:29;;;;;;;;;;;;;;;;;;7366178;19;1841;-60
2022/10/28 14:03:57;;;;;;;;;;;;;;;;;;7372402;19;1788;-60
2022/10/28 14:06:25;;;;;;;;;;;;;;;;;;7367741;19;834;-57
2022/10/28 14:08:53;;;;;;;;;;;;;;;;;;7364997;19;1279;-56
2022/10/28 14:11:22;;;;;;;;;;;;;;;;;;7367216;19;865;-59
2022/10/28 14:13:50;;;;;;;;;;;;;;;;;;7367942;19;870;-61
2022/10/28 14:16:18;;;;;;;;;;;;;;;;;;7370007;19;1823;-59
2022/10/28 14:18:46;;;;;;;;;;;;;;;;;;7367016;19;1852;-56
2022/10/28 14:21:14;;;;;;;;;;;;;;;;;;7366519;19;1861;-62
2022/10/28 14:23:42;;;;;;;;;;;;;;;;;;7367034;19;851;-55
2022/10/28 14:26:10;;;;;;;;;;;;;;;;;;7367945;19;827;-58
2022/10/28 14:28:38;;;;;;;;;;;;;;;;;;7364924;19;1275;-56
2022/10/28 14:31:07;;;;;;;;;;;;;;;;;;7368513;19;1765;-55
2022/10/28 14:33:35;;;;;;;;;;;;;;;;;;7369376;19;1627;-62
2022/10/28 14:36:03;;;;;;;;;;;;;;;;;;7366612;19;842;-62
2022/10/28 14:38:31;;;;;;;;;;;;;;;;;;7364009;19;1320;-62
2022/10/28 14:40:59;;;;;;;;;;;;;;;;;;7368189;19;1845;-64
2022/10/28 14:43:27;;;;;;;;;;;;;;;;;;7365727;19;1009;-61
2022/10/28 14:45:55;;;;;;;;;;;;;;;;;;7369913;19;1804;-61
2022/10/28 14:48:24;;;;;;;;;;;;;;;;;;7365016;19;1292;-63
2022/10/28 14:50:52;;;;;;;;;;;;;;;;;;7367223;19;832;-62
2022/10/28 14:53:20;;;;;;;;;;;;;;;;;;7365908;19;898;-60
2022/10/28 14:55:48;;;;;;;;;;;;;;;;;;7366770;19;883;-61
2022/10/28 14:58:16;;;;;;;;;;;;;;;;;;7364501;19;1259;-61
2022/10/28 15:00:44;;;;;;;;;;;;;;;;;;7363332;19;1707;-60
2022/10/28 15:03:12;;;;;;;;;;;;;;;;;;7370623;19;1544;-58
2022/10/28 15:05:41;;;;;;;;;;;;;;;;;;7365437;19;846;-57
2022/10/28 15:08:09;;;;;;;;;;;;;;;;;;7364804;19;1328;-61
2022/10/28 15:10:37;;;;;;;;;;;;;;;;;;7365535;19;785;-60
2022/10/28 15:13:05;;;;;;;;;;;;;;;;;;7366074;19;1813;-57
2022/10/28 15:15:33;;;;;;;;;;;;;;;;;;7365354;19;844;-53
2022/10/28 15:18:02;;;;;;;;;;;;;;;;;;7365090;19;1795;-56
2022/10/28 15:20:30;;;;;;;;;;;;;;;;;;7367583;19;1840;-55
2022/10/28 15:22:58;;;;;;;;;;;;;;;;;;7362275;19;1835;-56
2022/10/28 15:25:28;;;;;;;;;;;;;;;;;;7366336;19;807;-60
2022/10/28 15:27:56;;;;;;;;;;;;;;;;;;7367546;19;1334;-61
2022/10/28 15:30:24;;;;;;;;;;;;;;;;;;7371445;19;1010;-61
2022/10/28 15:32:52;;;;;;;;;;;;;;;;;;7368188;19;1825;-59
2022/10/28 15:35:22;;;;;;;;;;;;;;;;;;7368526;19;1544;-60
2022/10/28 15:37:50;;;;;;;;;;;;;;;;;;7364483;19;1274;-58
2022/10/28 15:40:19;;;;;;;;;;;;;;;;;;7365575;19;803;-57
2022/10/28 15:42:47;;;;;;;;;;;;;;;;;;7362174;19;1843;-58
2022/10/28 15:45:15;;;;;;;;;;;;;;;;;;7364051;19;847;-60
2022/10/28 15:47:43;;;;;;;;;;;;;;;;;;7364783;19;1822;-61
2022/10/28 15:50:11;;;;;;;;;;;;;;;;;;7364254;19;845;-60
2022/10/28 15:52:39;;;;;;;;;;;;;;;;;;7368436;19;1885;-60
2022/10/28 15:55:07;;;;;;;;;;;;;;;;;;7363720;19;843;-60
2022/10/28 15:57:35;;;;;;;;;;;;;;;;;;7364570;19;1830;-61
2022/10/28 16:00:04;;;;;;;;;;;;;;;;;;7363155;19;990;-61
2022/10/28 16:02:32;;;;;;;;;;;;;;;;;;7362159;19;1838;-58
2022/10/28 16:05:00;;;;;;;;;;;;;;;;;;7363553;19;825;-59
2022/10/28 16:07:28;;;;;;;;;;;;;;;;;;7365180;19;1760;-64
2022/10/28 16:09:56;;;;;;;;;;;;;;;;;;7363633;19;912;-61
2022/10/28 16:12:25;;;;;;;;;;;;;;;;;;7369517;19;782;-57
2022/10/28 16:14:53;;;;;;;;;;;;;;;;;;7370102;19;804;-62
2022/10/28 16:17:22;;;;;;;;;;;;;;;;;;7370610;19;1833;-60
2022/10/28 16:19:50;;;;;;;;;;;;;;;;;;7370778;19;1927;-63
2022/10/28 16:22:19;;;;;;;;;;;;;;;;;;7368742;19;1861;-62
2022/10/28 16:24:47;;;;;;;;;;;;;;;;;;7369970;19;800;-59
2022/10/28 16:27:15;;;;;;;;;;;;;;;;;;7373482;19;1919;-61
2022/10/28 16:29:43;;;;;;;;;;;;;;;;;;7371514;19;1369;-60
2022/10/28 16:32:11;;;;;;;;;;;;;;;;;;7372858;19;1761;-62
2022/10/28 16:34:40;;;;;;;;;;;;;;;;;;7371491;19;1891;-62
2022/10/28 16:37:08;;;;;;;;;;;;;;;;;;7372533;19;1773;-60
2022/10/28 16:39:36;;;;;;;;;;;;;;;;;;7369429;19;1792;-61
2022/10/28 16:42:04;;;;;;;;;;;;;;;;;;7371935;19;1974;-62
2022/10/28 16:44:32;;;;;;;;;;;;;;;;;;7369482;19;860;-60
2022/10/28 16:47:00;;;;;;;;;;;;;;;;;;7369574;19;824;-61
2022/10/28 16:49:28;;;;;;;;;;;;;;;;;;7366897;19;1248;-59
2022/10/28 16:51:56;;;;;;;;;;;;;;;;;;7369087;19;787;-59
2022/10/28 16:54:25;;;;;;;;;;;;;;;;;;7371840;19;848;-57
2022/10/28 16:56:53;;;;;;;;;;;;;;;;;;7372387;19;780;-60
2022/10/28 16:59:21;;;;;;;;;;;;;;;;;;7368512;19;1264;-62
2022/10/28 17:01:49;;;;;;;;;;;;;;;;;;7370201;19;1854;-61
2022/10/28 17:04:17;;;;;;;;;;;;;;;;;;7372351;19;878;-65
2022/10/28 17:06:45;;;;;;;;;;;;;;;;;;7371453;19;790;-61
2022/10/28 17:09:13;;;;;;;;;;;;;;;;;;7368115;19;1340;-63
2022/10/28 17:11:41;;;;;;;;;;;;;;;;;;7369895;19;791;-59
2022/10/28 17:14:10;;;;;;;;;;;;;;;;;;7367216;19;870;-61
2022/10/28 17:16:38;;;;;;;;;;;;;;;;;;7368655;19;811;-60
2022/10/28 17:19:06;;;;;;;;;;;;;;;;;;7366028;19;1338;-59